Time;durP1;ratioP1;P1;durP2;ratioP2;P2;SDS_P1;SDS_P2;PMS_P1;PMS_P2;Temp;Humidity;BMP_temperature;BMP_pressure;BME280_temperature;BME280_humidity;BME280_pressure;Samples;Min_cycle;Max_cycle;Signal;HPM_P1;HPM_P2
2024/03/15 00:01:37;;;;;;;;;;;;;;;8.61;100.00;100641.63;4977188;28;19926;-73
2024/03/15 00:04:02;;;;;;;;;;;;;;;8.59;100.00;100645.78;4970439;28;19928;-73
2024/03/15 00:06:29;;;;;;;;;;;;;;;8.55;100.00;100639.63;5007026;28;19940;-73
2024/03/15 00:08:55;;;;;;;;;;;;;;;8.47;100.00;100637.47;5011333;28;20295;-74
2024/03/15 00:11:22;;;;;;;;;;;;;;;8.19;100.00;100644.69;4982600;28;19921;-73
2024/03/15 00:13:48;;;;;;;;;;;;;;;8.10;100.00;100640.00;5011072;28;19921;-73
2024/03/15 00:16:14;;;;;;;;;;;;;;;7.96;100.00;100637.53;5011699;28;19928;-73
2024/03/15 00:18:39;;;;;;;;;;;;;;;7.80;100.00;100639.34;5010790;28;19924;-73
2024/03/15 00:21:05;;;;;;;;;;;;;;;7.60;100.00;100636.63;5011052;28;19922;-73
2024/03/15 00:23:30;;;;;;;;;;;;;;;7.52;100.00;100630.19;5011668;28;19917;-73
2024/03/15 00:25:55;;;;;;;;;;;;;;;7.43;100.00;100622.91;5010810;28;20474;-73
2024/03/15 00:28:21;;;;;;;;;;;;;;;7.44;100.00;100616.09;5010793;28;19944;-73
2024/03/15 00:30:49;;;;;;;;;;;;;;;7.47;100.00;100616.25;5010440;28;19917;-73
2024/03/15 00:33:14;;;;;;;;;;;;;;;7.53;100.00;100621.69;5010565;28;20346;-74
2024/03/15 00:35:42;;;;;;;;;;;;;;;7.63;100.00;100617.91;5011103;28;19921;-73
2024/03/15 00:38:07;;;;;;;;;;;;;;;7.70;100.00;100614.88;5010515;28;20527;-73
2024/03/15 00:40:33;;;;;;;;;;;;;;;7.53;100.00;100614.00;5010759;28;20048;-74
2024/03/15 00:42:58;;;;;;;;;;;;;;;7.45;100.00;100618.75;5010444;28;19925;-73
2024/03/15 00:45:24;;;;;;;;;;;;;;;7.53;100.00;100608.84;5010377;28;19929;-73
2024/03/15 00:47:51;;;;;;;;;;;;;;;7.59;100.00;100613.44;5010442;28;19917;-73
2024/03/15 00:50:17;;;;;;;;;;;;;;;7.60;100.00;100605.78;5011027;28;19917;-73
2024/03/15 00:52:42;;;;;;;;;;;;;;;7.67;100.00;100614.69;5010451;28;19922;-73
2024/03/15 00:55:08;;;;;;;;;;;;;;;7.72;100.00;100615.78;5009855;28;19922;-74
2024/03/15 00:57:34;;;;;;;;;;;;;;;7.61;100.00;100612.72;5010527;28;19921;-73
2024/03/15 00:59:59;;;;;;;;;;;;;;;7.27;100.00;100610.94;5010319;28;19925;-73
2024/03/15 01:02:24;;;;;;;;;;;;;;;7.08;100.00;100605.66;5010268;28;20010;-73
2024/03/15 01:04:51;;;;;;;;;;;;;;;7.12;100.00;100602.44;5010328;28;19968;-73
2024/03/15 01:07:16;;;;;;;;;;;;;;;7.23;100.00;100601.31;5008379;28;19924;-74
2024/03/15 01:09:42;;;;;;;;;;;;;;;7.35;100.00;100603.66;5010115;28;19917;-73
2024/03/15 01:12:07;;;;;;;;;;;;;;;7.42;100.00;100600.56;5010191;28;19928;-73
2024/03/15 01:14:32;;;;;;;;;;;;;;;7.35;100.00;100610.47;5009938;28;19928;-74
2024/03/15 01:16:58;;;;;;;;;;;;;;;7.17;100.00;100603.56;5010473;28;19913;-73
2024/03/15 01:19:26;;;;;;;;;;;;;;;7.14;100.00;100600.84;5009909;28;20012;-73
2024/03/15 01:21:51;;;;;;;;;;;;;;;7.15;100.00;100604.28;4976156;28;20551;-73
2024/03/15 01:24:16;;;;;;;;;;;;;;;7.18;100.00;100602.75;5009864;28;20008;-73
2024/03/15 01:26:43;;;;;;;;;;;;;;;7.29;100.00;100608.47;5010795;28;20012;-73
2024/03/15 01:29:08;;;;;;;;;;;;;;;7.36;100.00;100605.41;5009782;28;19960;-74
2024/03/15 01:31:34;;;;;;;;;;;;;;;7.36;100.00;100602.81;5009921;28;20011;-73
2024/03/15 01:33:59;;;;;;;;;;;;;;;7.35;100.00;100605.31;5005979;28;20280;-74
2024/03/15 01:36:25;;;;;;;;;;;;;;;7.37;100.00;100601.16;5009758;28;19922;-73
2024/03/15 01:38:50;;;;;;;;;;;;;;;7.46;100.00;100609.34;5009617;28;19976;-73
2024/03/15 01:41:15;;;;;;;;;;;;;;;7.45;100.00;100607.56;5009987;28;20387;-74
2024/03/15 01:43:49;;;;;;;;;;;;;;;7.47;100.00;100613.66;5009664;28;19960;-73
2024/03/15 01:46:15;;;;;;;;;;;;;;;7.41;100.00;100610.78;5001691;28;20004;-74
2024/03/15 01:48:40;;;;;;;;;;;;;;;7.44;100.00;100608.38;5010008;28;20013;-73
2024/03/15 01:51:06;;;;;;;;;;;;;;;7.48;100.00;100618.00;5010505;28;20414;-73
2024/03/15 01:53:32;;;;;;;;;;;;;;;7.56;100.00;100618.41;5009813;28;19921;-73
2024/03/15 01:55:57;;;;;;;;;;;;;;;7.61;100.00;100619.50;5009757;28;19944;-73
2024/03/15 01:58:24;;;;;;;;;;;;;;;7.50;100.00;100625.78;5009655;28;19925;-73
2024/03/15 02:00:50;;;;;;;;;;;;;;;7.28;100.00;100625.56;5009314;28;19919;-73
2024/03/15 02:03:16;;;;;;;;;;;;;;;7.16;100.00;100621.47;5009841;28;19929;-74
2024/03/15 02:05:43;;;;;;;;;;;;;;;7.06;100.00;100626.09;5009783;28;20383;-73
2024/03/15 02:08:08;;;;;;;;;;;;;;;6.98;100.00;100627.38;5012870;28;19923;-73
2024/03/15 02:10:33;;;;;;;;;;;;;;;6.88;100.00;100632.78;5013365;28;20346;-73
2024/03/15 02:12:59;;;;;;;;;;;;;;;6.81;100.00;100636.72;5013215;28;19925;-73
2024/03/15 02:15:24;;;;;;;;;;;;;;;6.79;100.00;100639.22;5013258;28;19921;-73
2024/03/15 02:17:49;;;;;;;;;;;;;;;6.76;100.00;100633.03;5013441;28;19929;-73
2024/03/15 02:20:18;;;;;;;;;;;;;;;6.70;100.00;100627.56;5013256;28;19929;-74
2024/03/15 02:22:44;;;;;;;;;;;;;;;6.75;100.00;100631.25;4988455;28;19987;-73
2024/03/15 02:25:09;;;;;;;;;;;;;;;6.80;100.00;100632.38;5013252;28;19917;-73
2024/03/15 02:27:35;;;;;;;;;;;;;;;6.88;100.00;100628.56;5012972;28;19945;-73
2024/03/15 02:30:01;;;;;;;;;;;;;;;6.88;100.00;100630.22;5013037;28;19940;-73
2024/03/15 02:32:27;;;;;;;;;;;;;;;6.88;100.00;100633.69;5012878;28;19929;-73
2024/03/15 02:34:53;;;;;;;;;;;;;;;6.80;100.00;100634.94;5012904;28;19925;-73
2024/03/15 02:37:19;;;;;;;;;;;;;;;6.73;100.00;100636.31;5012738;28;19932;-73
2024/03/15 02:39:46;;;;;;;;;;;;;;;6.82;100.00;100635.03;5012572;28;19955;-73
2024/03/15 02:42:11;;;;;;;;;;;;;;;6.89;100.00;100635.47;5012726;28;19925;-73
2024/03/15 02:44:39;;;;;;;;;;;;;;;6.93;100.00;100637.38;5012909;28;19929;-73
2024/03/15 02:47:05;;;;;;;;;;;;;;;6.95;100.00;100638.38;5013203;28;19921;-73
2024/03/15 02:49:30;;;;;;;;;;;;;;;6.99;100.00;100647.13;5003725;28;19925;-74
2024/03/15 02:51:56;;;;;;;;;;;;;;;7.05;100.00;100636.28;5012682;28;20358;-74
2024/03/15 02:54:22;;;;;;;;;;;;;;;7.10;100.00;100630.59;5013033;28;19940;-73
2024/03/15 02:56:47;;;;;;;;;;;;;;;7.09;100.00;100633.97;5012159;28;19946;-73
2024/03/15 02:59:13;;;;;;;;;;;;;;;7.00;100.00;100643.72;5012697;28;19922;-73
2024/03/15 03:01:38;;;;;;;;;;;;;;;6.92;100.00;100643.31;5010560;28;19927;-73
2024/03/15 03:04:06;;;;;;;;;;;;;;;6.90;100.00;100649.16;5011929;28;19951;-73
2024/03/15 03:06:32;;;;;;;;;;;;;;;6.93;100.00;100644.22;5012380;28;19925;-73
2024/03/15 03:08:57;;;;;;;;;;;;;;;6.99;100.00;100651.34;5012691;28;19914;-73
2024/03/15 03:11:22;;;;;;;;;;;;;;;6.96;100.00;100650.38;5011810;28;19926;-73
2024/03/15 03:13:48;;;;;;;;;;;;;;;6.96;100.00;100652.06;5011966;28;19948;-74
2024/03/15 03:16:22;;;;;;;;;;;;;;;6.95;100.00;100648.63;5011986;28;19953;-74
2024/03/15 03:18:47;;;;;;;;;;;;;;;6.89;100.00;100650.88;5011350;28;19953;-73
2024/03/15 03:21:13;;;;;;;;;;;;;;;6.94;100.00;100654.56;5011813;28;19976;-73
2024/03/15 03:23:38;;;;;;;;;;;;;;;7.04;100.00;100643.13;5001697;28;19922;-73
2024/03/15 03:26:05;;;;;;;;;;;;;;;7.01;100.00;100647.19;5011806;28;20367;-73
2024/03/15 03:28:30;;;;;;;;;;;;;;;6.90;100.00;100647.50;5011771;28;20418;-73
2024/03/15 03:30:55;;;;;;;;;;;;;;;6.91;100.00;100638.09;5011744;28;19968;-73
2024/03/15 03:33:21;;;;;;;;;;;;;;;6.91;100.00;100641.53;5011690;28;19928;-73
2024/03/15 03:35:46;;;;;;;;;;;;;;;6.94;100.00;100644.28;5012245;28;19971;-73
2024/03/15 03:38:12;;;;;;;;;;;;;;;7.04;100.00;100642.22;5011305;28;20383;-74
2024/03/15 03:40:38;;;;;;;;;;;;;;;7.22;100.00;100640.63;5011637;28;20370;-73
2024/03/15 03:43:03;;;;;;;;;;;;;;;7.31;100.00;100635.09;5011312;28;20017;-74
2024/03/15 03:45:28;;;;;;;;;;;;;;;7.35;100.00;100636.16;5011428;28;19957;-73
2024/03/15 03:47:55;;;;;;;;;;;;;;;7.34;100.00;100639.50;5011569;28;19922;-73
2024/03/15 03:50:21;;;;;;;;;;;;;;;7.41;100.00;100641.59;5011872;28;20310;-73
2024/03/15 03:52:46;;;;;;;;;;;;;;;7.47;100.00;100649.63;4971622;28;19919;-73
2024/03/15 03:55:13;;;;;;;;;;;;;;;7.43;100.00;100640.88;5011209;28;20358;-73
2024/03/15 03:57:40;;;;;;;;;;;;;;;7.36;100.00;100637.91;5011095;28;19953;-73
2024/03/15 04:00:06;;;;;;;;;;;;;;;7.36;100.00;100641.34;5010911;28;19925;-74
2024/03/15 04:02:32;;;;;;;;;;;;;;;7.32;100.00;100646.28;5011146;28;19922;-74
2024/03/15 04:04:58;;;;;;;;;;;;;;;7.45;100.00;100646.09;4981093;28;19924;-73
2024/03/15 04:07:32;;;;;;;;;;;;;;;7.51;100.00;100637.84;5010978;28;19921;-73
2024/03/15 04:09:57;;;;;;;;;;;;;;;7.56;100.00;100649.22;5011169;28;19928;-73
2024/03/15 04:12:22;;;;;;;;;;;;;;;7.51;100.00;100638.69;5011099;28;19917;-73
2024/03/15 04:14:51;;;;;;;;;;;;;;;7.38;100.00;100639.75;5011281;28;19968;-73
2024/03/15 04:17:16;;;;;;;;;;;;;;;7.27;100.00;100634.03;5011093;28;19924;-72
2024/03/15 04:19:43;;;;;;;;;;;;;;;7.25;100.00;100635.66;5011080;28;19926;-72
2024/03/15 04:22:09;;;;;;;;;;;;;;;7.19;100.00;100635.34;5010776;28;19924;-72
2024/03/15 04:24:35;;;;;;;;;;;;;;;7.18;100.00;100638.72;5010492;28;19921;-72
2024/03/15 04:27:01;;;;;;;;;;;;;;;7.12;100.00;100638.38;5000874;28;19921;-72
2024/03/15 04:29:26;;;;;;;;;;;;;;;6.92;100.00;100643.31;5010456;28;19952;-72
2024/03/15 04:31:51;;;;;;;;;;;;;;;6.79;100.00;100646.91;5010551;28;19929;-72
2024/03/15 04:34:17;;;;;;;;;;;;;;;6.71;100.00;100644.72;5010775;28;19929;-72
2024/03/15 04:36:43;;;;;;;;;;;;;;;6.67;100.00;100647.88;5010609;28;20303;-71
2024/03/15 04:39:10;;;;;;;;;;;;;;;6.76;100.00;100654.41;5010391;28;19921;-72
2024/03/15 04:41:36;;;;;;;;;;;;;;;6.96;100.00;100662.34;5010618;28;19918;-71
2024/03/15 04:44:02;;;;;;;;;;;;;;;7.08;100.00;100673.28;5010336;28;19921;-72
2024/03/15 04:46:27;;;;;;;;;;;;;;;7.15;100.00;100668.47;5010297;28;19922;-72
2024/03/15 04:48:52;;;;;;;;;;;;;;;7.10;100.00;100673.34;5010438;28;20485;-71
2024/03/15 04:51:18;;;;;;;;;;;;;;;7.07;100.00;100671.50;5009636;28;19925;-72
2024/03/15 04:53:43;;;;;;;;;;;;;;;6.99;100.00;100671.88;4975319;28;19922;-72
2024/03/15 04:56:09;;;;;;;;;;;;;;;6.90;100.00;100670.59;5008567;28;19967;-75
2024/03/15 04:58:34;;;;;;;;;;;;;;;6.78;100.00;100665.66;5005627;28;20319;-72
2024/03/15 05:01:00;;;;;;;;;;;;;;;6.92;100.00;100658.72;5005600;28;19925;-72
2024/03/15 05:03:27;;;;;;;;;;;;;;;7.07;100.00;100665.50;5010132;28;19921;-72
2024/03/15 05:05:52;;;;;;;;;;;;;;;7.10;100.00;100671.69;5002767;28;20372;-73
2024/03/15 05:08:18;;;;;;;;;;;;;;;7.16;100.00;100668.53;5010261;28;19929;-72
2024/03/15 05:10:43;;;;;;;;;;;;;;;7.22;100.00;100670.56;5010022;28;20387;-72
2024/03/15 05:13:08;;;;;;;;;;;;;;;7.25;100.00;100665.59;5010041;28;19921;-72
2024/03/15 05:15:34;;;;;;;;;;;;;;;7.34;100.00;100670.31;5009351;28;19929;-71
2024/03/15 05:17:59;;;;;;;;;;;;;;;7.41;100.00;100675.00;5005030;28;19926;-73
2024/03/15 05:20:25;;;;;;;;;;;;;;;7.41;100.00;100672.44;5005552;28;20009;-72
2024/03/15 05:22:50;;;;;;;;;;;;;;;7.46;100.00;100670.97;5002298;28;19926;-73
2024/03/15 05:25:15;;;;;;;;;;;;;;;7.52;100.00;100668.72;5003101;28;19926;-72
2024/03/15 05:28:01;;;;;;;;;;;;;;;7.58;100.00;100675.91;4993881;28;20363;-73
2024/03/15 05:30:27;;;;;;;;;;;;;;;7.53;100.00;100670.50;4995617;28;19918;-73
2024/03/15 05:32:53;;;;;;;;;;;;;;;7.55;100.00;100674.06;4999221;28;20419;-73
2024/03/15 05:35:20;;;;;;;;;;;;;;;7.53;100.00;100677.34;4999501;28;19921;-73
2024/03/15 05:37:46;;;;;;;;;;;;;;;7.53;100.00;100672.22;4992808;28;20049;-73
2024/03/15 05:40:12;;;;;;;;;;;;;;;7.58;100.00;100673.31;4997207;28;20020;-73
2024/03/15 05:42:37;;;;;;;;;;;;;;;7.66;100.00;100674.59;5002084;28;19922;-73
2024/03/15 05:45:03;;;;;;;;;;;;;;;7.71;100.00;100677.41;5003580;28;19921;-73
2024/03/15 05:47:29;;;;;;;;;;;;;;;7.74;100.00;100678.44;4996604;28;20012;-73
2024/03/15 05:49:54;;;;;;;;;;;;;;;7.85;100.00;100675.53;5001180;28;20052;-73
2024/03/15 05:52:20;;;;;;;;;;;;;;;7.88;100.00;100675.72;5001889;28;19957;-73
2024/03/15 05:54:45;;;;;;;;;;;;;;;7.87;100.00;100679.09;5002306;28;19918;-73
2024/03/15 05:57:10;;;;;;;;;;;;;;;7.78;100.00;100680.38;4999316;28;19924;-73
2024/03/15 05:59:36;;;;;;;;;;;;;;;7.52;100.00;100676.44;5008793;28;19929;-73
2024/03/15 06:02:01;;;;;;;;;;;;;;;7.42;100.00;100687.03;5013970;28;19921;-73
2024/03/15 06:04:26;;;;;;;;;;;;;;;7.32;100.00;100695.94;5014045;28;19928;-73
2024/03/15 06:06:52;;;;;;;;;;;;;;;7.27;100.00;100698.25;5013582;28;19987;-73
2024/03/15 06:09:17;;;;;;;;;;;;;;;7.24;100.00;100699.75;5013706;28;19933;-73
2024/03/15 06:11:42;;;;;;;;;;;;;;;7.37;100.00;100698.75;5013560;28;19922;-73
2024/03/15 06:14:11;;;;;;;;;;;;;;;7.49;100.00;100698.50;5007407;28;20036;-73
2024/03/15 06:16:36;;;;;;;;;;;;;;;7.53;100.00;100703.91;4989062;28;19925;-73
2024/03/15 06:19:04;;;;;;;;;;;;;;;7.52;100.00;100703.84;5013231;28;19921;-73
2024/03/15 06:21:30;;;;;;;;;;;;;;;7.65;100.00;100703.69;5013320;28;20396;-73
2024/03/15 06:23:55;;;;;;;;;;;;;;;7.75;100.00;100708.50;5013435;28;20024;-73
2024/03/15 06:26:22;;;;;;;;;;;;;;;7.94;100.00;100709.44;5013206;28;19987;-73
2024/03/15 06:28:48;;;;;;;;;;;;;;;8.03;100.00;100711.59;5013205;28;19929;-73
2024/03/15 06:31:13;;;;;;;;;;;;;;;8.10;100.00;100714.56;5013183;28;19922;-73
2024/03/15 06:33:40;;;;;;;;;;;;;;;8.20;100.00;100725.28;5013827;28;19983;-73
2024/03/15 06:36:06;;;;;;;;;;;;;;;8.26;100.00;100716.22;5013326;28;20009;-73
2024/03/15 06:38:51;;;;;;;;;;;;;;;8.32;100.00;100730.19;5013344;28;20389;-73
2024/03/15 06:49:43;;;;;;;;;;;;;;;8.28;100.00;100743.72;4952486;28;19981;-73
2024/03/15 06:54:53;;;;;;;;;;;;;;;8.33;100.00;100737.09;4951630;28;20009;-73
2024/03/15 06:57:18;;;;;;;;;;;;;;;8.33;100.00;100737.97;4951984;28;19929;-73
2024/03/15 06:59:43;;;;;;;;;;;;;;;8.33;100.00;100737.09;4951885;28;20328;-72
2024/03/15 07:02:09;;;;;;;;;;;;;;;8.36;100.00;100742.38;4952543;29;20444;-73
2024/03/15 07:04:34;;;;;;;;;;;;;;;8.34;100.00;100739.75;4951887;28;20439;-72
2024/03/15 07:07:00;;;;;;;;;;;;;;;8.30;100.00;100744.66;4951861;28;20067;-73
2024/03/15 07:09:25;;;;;;;;;;;;;;;8.33;100.00;100740.56;4951686;28;20052;-73
2024/03/15 07:11:50;;;;;;;;;;;;;;;8.38;100.00;100739.09;4951618;28;19922;-73
2024/03/15 07:14:15;;;;;;;;;;;;;;;8.42;100.00;100735.88;4951632;28;19936;-73
2024/03/15 07:16:41;;;;;;;;;;;;;;;8.54;100.00;100740.78;4951822;29;19977;-73
2024/03/15 07:19:06;;;;;;;;;;;;;;;8.65;100.00;100746.47;4951659;28;20066;-72
2024/03/15 07:21:33;;;;;;;;;;;;;;;8.77;100.00;100745.28;4951427;28;19922;-73
2024/03/15 07:23:58;;;;;;;;;;;;;;;8.80;100.00;100750.56;5012019;28;20426;-73
2024/03/15 07:26:24;;;;;;;;;;;;;;;8.78;100.00;100753.06;5021925;28;19952;-73
2024/03/15 07:28:49;;;;;;;;;;;;;;;8.89;100.00;100758.75;5022777;28;19979;-73
2024/03/15 07:31:15;;;;;;;;;;;;;;;8.96;100.00;100758.25;5023524;28;19927;-73
2024/03/15 07:33:41;;;;;;;;;;;;;;;8.96;100.00;100757.34;5022534;28;19925;-73
2024/03/15 07:36:13;;;;;;;;;;;;;;;8.99;100.00;100758.38;5021822;28;20421;-73
2024/03/15 07:38:40;;;;;;;;;;;;;;;8.94;100.00;100756.41;5022957;28;20334;-73
2024/03/15 07:41:08;;;;;;;;;;;;;;;8.99;100.00;100752.38;5020541;28;19925;-73
2024/03/15 07:43:33;;;;;;;;;;;;;;;9.12;100.00;100748.66;5024502;28;20115;-73
2024/03/15 07:45:59;;;;;;;;;;;;;;;9.20;100.00;100748.22;5023406;28;20656;-73
2024/03/15 07:48:24;;;;;;;;;;;;;;;9.27;100.00;100736.53;5015637;28;19917;-73
2024/03/15 07:50:49;;;;;;;;;;;;;;;9.26;100.00;100739.00;5019961;28;19918;-73
2024/03/15 07:53:15;;;;;;;;;;;;;;;9.10;100.00;100737.41;5020264;28;20407;-73
2024/03/15 07:55:40;;;;;;;;;;;;;;;9.06;100.00;100738.97;5021135;28;19926;-72
2024/03/15 07:58:06;;;;;;;;;;;;;;;9.24;100.00;100744.09;5021238;28;19972;-72
2024/03/15 08:00:31;;;;;;;;;;;;;;;9.29;100.00;100737.47;5026093;28;20059;-72
2024/03/15 08:02:57;;;;;;;;;;;;;;;9.05;100.00;100738.06;5010317;28;20007;-72
2024/03/15 08:05:27;;;;;;;;;;;;;;;8.89;100.00;100740.72;5022745;28;19925;-72
2024/03/15 08:07:56;;;;;;;;;;;;;;;9.07;100.00;100741.63;5022065;28;19925;-72
2024/03/15 08:10:22;;;;;;;;;;;;;;;9.03;100.00;100733.66;5021157;28;19953;-72
2024/03/15 08:12:48;;;;;;;;;;;;;;;9.17;100.00;100736.88;5022277;28;20388;-73
2024/03/15 08:15:13;;;;;;;;;;;;;;;9.38;100.00;100735.31;5019731;28;19952;-72
2024/03/15 08:17:39;;;;;;;;;;;;;;;9.52;100.00;100735.03;5029556;28;19929;-72
2024/03/15 08:20:08;;;;;;;;;;;;;;;9.68;100.00;100728.88;5022049;28;19965;-73
2024/03/15 08:22:38;;;;;;;;;;;;;;;9.81;100.00;100732.91;5021818;28;19991;-73
2024/03/15 08:25:05;;;;;;;;;;;;;;;9.94;100.00;100724.88;5023046;28;19917;-73
2024/03/15 08:27:30;;;;;;;;;;;;;;;9.93;100.00;100728.31;5022817;28;19944;-72
2024/03/15 08:29:56;;;;;;;;;;;;;;;9.87;100.00;100725.47;5021150;28;20658;-72
2024/03/15 08:32:22;;;;;;;;;;;;;;;9.91;100.00;100723.91;5017419;28;19979;-72
2024/03/15 08:34:48;;;;;;;;;;;;;;;9.92;100.00;100716.22;5017473;28;20380;-72
2024/03/15 08:37:14;;;;;;;;;;;;;;;9.75;100.00;100724.91;5019320;28;19983;-72
2024/03/15 08:39:40;;;;;;;;;;;;;;;9.80;100.00;100723.41;5020486;28;20387;-72
2024/03/15 08:42:05;;;;;;;;;;;;;;;10.06;100.00;100726.25;5016706;28;20006;-72
2024/03/15 08:44:32;;;;;;;;;;;;;;;10.20;100.00;100726.03;5011172;28;20302;-72
2024/03/15 08:46:57;;;;;;;;;;;;;;;10.45;100.00;100729.66;5011491;28;20307;-72
2024/03/15 08:49:23;;;;;;;;;;;;;;;10.51;100.00;100727.31;5011325;28;19926;-72
2024/03/15 08:51:48;;;;;;;;;;;;;;;10.67;100.00;100720.22;5010926;28;19940;-72
2024/03/15 08:54:15;;;;;;;;;;;;;;;10.76;100.00;100725.75;5010992;28;19918;-72
2024/03/15 08:56:41;;;;;;;;;;;;;;;10.93;100.00;100723.84;5010253;28;19967;-72
2024/03/15 08:59:06;;;;;;;;;;;;;;;11.14;100.00;100728.06;5010428;28;19921;-72
2024/03/15 09:01:35;;;;;;;;;;;;;;;11.31;100.00;100715.81;4975710;28;19922;-72
2024/03/15 09:04:01;;;;;;;;;;;;;;;11.30;100.00;100719.22;5010369;28;20315;-72
2024/03/15 09:06:27;;;;;;;;;;;;;;;11.41;100.00;100710.16;5010439;28;19917;-72
2024/03/15 09:08:56;;;;;;;;;;;;;;;11.63;100.00;100705.78;5010511;28;19925;-72
2024/03/15 09:11:22;;;;;;;;;;;;;;;11.82;100.00;100699.56;5010621;28;19925;-73
2024/03/15 09:13:48;;;;;;;;;;;;;;;11.99;100.00;100707.97;5010412;28;19922;-72
2024/03/15 09:16:13;;;;;;;;;;;;;;;12.04;100.00;100702.97;5010413;28;19918;-72
2024/03/15 09:18:39;;;;;;;;;;;;;;;12.11;100.00;100691.97;5010490;28;20019;-72
2024/03/15 09:21:06;;;;;;;;;;;;;;;12.05;100.00;100697.81;5010560;28;19925;-72
2024/03/15 09:23:31;;;;;;;;;;;;;;;12.23;100.00;100688.94;5010467;28;19932;-72
2024/03/15 09:25:56;;;;;;;;;;;;;;;12.32;100.00;100680.59;5010236;28;19917;-72
2024/03/15 09:28:23;;;;;;;;;;;;;;;12.47;100.00;100688.84;5010668;28;19952;-73
2024/03/15 09:33:15;;;;;;;;;;;;;;;12.81;100.00;100682.16;5011277;28;19957;-73
2024/03/15 09:35:44;;;;;;;;;;;;;;;12.90;100.00;100674.66;5010340;28;19921;-73
2024/03/15 09:38:11;;;;;;;;;;;;;;;12.98;100.00;100679.22;5010333;28;19922;-73
2024/03/15 09:40:37;;;;;;;;;;;;;;;13.05;100.00;100666.47;5010078;28;19921;-73
2024/03/15 09:43:03;;;;;;;;;;;;;;;13.22;100.00;100668.69;5009873;28;19921;-73
2024/03/15 09:45:29;;;;;;;;;;;;;;;13.32;100.00;100670.72;5010683;28;20374;-73
2024/03/15 09:47:54;;;;;;;;;;;;;;;13.40;100.00;100673.56;5010511;28;19918;-72
2024/03/15 09:50:29;;;;;;;;;;;;;;;13.57;100.00;100668.84;5011114;28;20372;-73
2024/03/15 09:52:58;;;;;;;;;;;;;;;13.69;100.00;100671.78;5009930;28;20439;-72
2024/03/15 09:55:24;;;;;;;;;;;;;;;13.77;100.00;100665.94;5010076;28;19979;-73
2024/03/15 09:57:50;;;;;;;;;;;;;;;13.85;100.00;100667.03;4936509;28;19922;-72
2024/03/15 10:00:23;;;;;;;;;;;;;;;13.98;100.00;100663.91;5009902;28;19929;-72
2024/03/15 10:02:52;;;;;;;;;;;;;;;14.15;100.00;100666.94;5010601;28;20398;-73
2024/03/15 10:05:20;;;;;;;;;;;;;;;14.29;100.00;100661.22;5010226;28;19925;-73
2024/03/15 10:07:46;;;;;;;;;;;;;;;14.42;100.00;100665.88;5006898;28;20008;-73
2024/03/15 10:10:11;;;;;;;;;;;;;;;14.42;100.00;100672.75;5009753;28;20015;-73
2024/03/15 10:12:42;;;;;;;;;;;;;;;14.57;100.00;100660.16;5009572;28;19941;-73
2024/03/15 10:15:10;;;;;;;;;;;;;;;14.64;100.00;100654.28;5010062;28;19925;-73
2024/03/15 10:17:38;;;;;;;;;;;;;;;14.68;100.00;100658.72;5010099;28;19964;-73
2024/03/15 10:20:11;;;;;;;;;;;;;;;14.61;100.00;100655.91;4984740;28;19917;-73
2024/03/15 10:22:38;;;;;;;;;;;;;;;14.55;100.00;100651.44;5008074;28;19921;-73
2024/03/15 10:25:03;;;;;;;;;;;;;;;14.75;100.00;100653.66;5010156;28;19933;-74
2024/03/15 10:27:29;;;;;;;;;;;;;;;14.90;99.83;100646.19;5010565;28;19917;-73
2024/03/15 10:29:55;;;;;;;;;;;;;;;14.96;97.54;100642.88;5013755;28;20426;-73
2024/03/15 10:32:21;;;;;;;;;;;;;;;14.94;98.45;100641.94;5013413;28;19922;-73
2024/03/15 10:34:47;;;;;;;;;;;;;;;15.06;99.33;100642.22;5013372;28;20016;-73
2024/03/15 10:37:12;;;;;;;;;;;;;;;15.15;98.12;100634.63;5013236;28;19922;-73
2024/03/15 10:39:38;;;;;;;;;;;;;;;15.08;97.00;100637.03;5005316;28;19928;-73
2024/03/15 10:42:05;;;;;;;;;;;;;;;15.09;100.00;100628.41;5013183;28;19925;-73
2024/03/15 10:44:33;;;;;;;;;;;;;;;15.20;97.58;100630.41;5023017;28;19921;-73
2024/03/15 10:46:58;;;;;;;;;;;;;;;15.26;97.70;100621.81;5018530;28;19968;-73
2024/03/15 10:49:25;;;;;;;;;;;;;;;15.35;94.86;100611.63;5024654;28;20267;-73
2024/03/15 10:51:50;;;;;;;;;;;;;;;15.50;95.84;100610.16;5016159;28;19925;-73
2024/03/15 10:54:19;;;;;;;;;;;;;;;15.62;95.02;100602.56;5024497;28;19928;-73
2024/03/15 10:56:46;;;;;;;;;;;;;;;15.54;95.30;100598.97;5024402;28;20016;-73
2024/03/15 10:59:12;;;;;;;;;;;;;;;15.77;94.77;100601.09;5022828;28;20628;-73
2024/03/15 11:01:38;;;;;;;;;;;;;;;15.94;92.65;100597.09;5023176;28;19924;-73
2024/03/15 11:04:03;;;;;;;;;;;;;;;16.09;90.75;100596.47;5024061;28;19917;-73
2024/03/15 11:06:41;;;;;;;;;;;;;;;16.22;88.83;100592.31;5024259;28;19921;-73
2024/03/15 11:09:19;;;;;;;;;;;;;;;16.23;88.41;100586.28;5024297;28;19971;-73
2024/03/15 11:11:54;;;;;;;;;;;;;;;16.13;86.10;100589.59;5018085;28;19951;-73
2024/03/15 11:14:22;;;;;;;;;;;;;;;16.27;84.67;100582.84;5022215;28;19921;-73
2024/03/15 11:16:55;;;;;;;;;;;;;;;16.31;82.39;100581.19;5021827;28;20379;-73
2024/03/15 11:19:20;;;;;;;;;;;;;;;16.01;84.20;100580.72;4996011;28;19925;-73
2024/03/15 11:21:45;;;;;;;;;;;;;;;15.60;80.63;100580.88;5021283;28;19938;-74
2024/03/15 11:24:14;;;;;;;;;;;;;;;15.68;84.29;100571.44;5024296;28;19921;-73
2024/03/15 11:26:39;;;;;;;;;;;;;;;15.92;84.97;100567.53;5017270;28;19928;-73
2024/03/15 11:29:08;;;;;;;;;;;;;;;16.15;82.74;100565.31;5021893;28;19921;-73
2024/03/15 11:31:34;;;;;;;;;;;;;;;16.10;79.98;100568.69;5022958;28;19921;-73
2024/03/15 11:34:00;;;;;;;;;;;;;;;16.28;78.97;100561.16;5012024;28;19932;-73
2024/03/15 11:36:27;;;;;;;;;;;;;;;16.17;78.35;100558.41;5021606;28;20391;-73
2024/03/15 11:38:52;;;;;;;;;;;;;;;16.32;78.46;100556.88;5021383;28;19921;-73
2024/03/15 11:41:20;;;;;;;;;;;;;;;16.41;78.57;100557.03;5023420;28;19940;-73
2024/03/15 11:43:46;;;;;;;;;;;;;;;16.47;77.59;100551.00;5011943;28;19922;-73
2024/03/15 11:46:11;;;;;;;;;;;;;;;16.60;77.92;100552.94;5012377;28;19917;-73
2024/03/15 11:48:37;;;;;;;;;;;;;;;16.75;79.63;100543.59;5011813;28;19922;-74
2024/03/15 11:51:02;;;;;;;;;;;;;;;16.90;76.56;100541.16;5011616;28;19918;-73
2024/03/15 11:53:28;;;;;;;;;;;;;;;17.03;73.74;100539.59;5012845;28;19925;-73
2024/03/15 11:55:54;;;;;;;;;;;;;;;16.88;73.30;100537.63;5020604;28;20225;-74
2024/03/15 11:58:21;;;;;;;;;;;;;;;16.53;73.77;100547.63;5010276;28;19971;-73
2024/03/15 12:00:50;;;;;;;;;;;;;;;16.61;70.68;100541.66;5011281;28;20370;-73
2024/03/15 12:03:16;;;;;;;;;;;;;;;16.89;72.97;100539.41;5011527;28;20019;-73
2024/03/15 12:05:43;;;;;;;;;;;;;;;17.08;73.08;100542.25;5011394;28;19929;-73
2024/03/15 12:08:15;;;;;;;;;;;;;;;17.06;72.12;100544.84;5011715;28;19947;-73
2024/03/15 12:10:43;;;;;;;;;;;;;;;17.07;71.50;100543.09;5011590;28;19944;-72
2024/03/15 12:13:15;;;;;;;;;;;;;;;17.09;71.86;100541.41;5011066;28;20681;-72
2024/03/15 12:15:41;;;;;;;;;;;;;;;16.72;70.83;100541.78;5011594;28;19948;-74
2024/03/15 12:18:12;;;;;;;;;;;;;;;16.07;70.82;100540.00;5011487;28;20383;-74
2024/03/15 12:20:37;;;;;;;;;;;;;;;15.90;71.36;100543.22;5008741;28;19933;-73
2024/03/15 12:23:04;;;;;;;;;;;;;;;16.23;71.30;100536.78;5011657;28;19925;-73
2024/03/15 12:25:29;;;;;;;;;;;;;;;16.07;70.26;100540.00;5011310;28;19918;-73
2024/03/15 12:27:55;;;;;;;;;;;;;;;16.21;71.86;100533.25;5010847;28;19925;-73
2024/03/15 12:30:20;;;;;;;;;;;;;;;16.44;72.78;100533.59;5010601;28;19933;-73
2024/03/15 12:32:46;;;;;;;;;;;;;;;16.58;69.55;100530.31;5011045;28;19921;-73
2024/03/15 12:35:11;;;;;;;;;;;;;;;16.72;75.00;100527.88;5011222;28;19926;-74
2024/03/15 12:37:36;;;;;;;;;;;;;;;16.81;70.89;100523.66;5011125;28;19921;-73
2024/03/15 12:40:03;;;;;;;;;;;;;;;16.90;68.21;100524.66;5011167;28;20008;-73
2024/03/15 12:42:29;;;;;;;;;;;;;;;16.96;67.18;100525.63;5010560;28;20350;-74
2024/03/15 12:44:54;;;;;;;;;;;;;;;17.11;69.26;100524.91;5011079;28;19925;-72